Caribbean Sea — PHNU — position and weather

sailwx.info

Track history (hours):
 
Tides and Currents Weather Stations Pressure Air Temp Water Temp Dewpoint Dewpoint Depression Visibility Wind Speed Wind Dir Waves Ship Positions

Caribbean Sea

Last reported at 2014-Oct-16 09:23 UTC. Time now 2014-Oct-23 05:23 UTC.
Position N 19°14' W 095°39'.

Length 183 m; draft 8.9 m.

Type: Ship (hazmat cat A). MMSI: 244523000.

Date/timePositionNaut miles runAvg speedWind from/ knotsBaromVisibWave heightAir tempDewpointWater temp
2014-Oct-16 09:23N 19°14' W 095°39'1417.4
2014-Oct-16 08:34N 19°12' W 095°54'1413.6
2014-Oct-16 07:34N 19°12' W 096°08'0 0.2
2014-Oct-16 06:32N 19°12' W 096°08'0 0.0
2014-Oct-16 05:33N 19°12' W 096°08'0 0.0
2014-Oct-16 04:33N 19°12' W 096°08'0 0.0
2014-Oct-16 03:32N 19°12' W 096°08'0 0.0
2014-Oct-16 02:32N 19°12' W 096°08'0 0.0
2014-Oct-16 01:32N 19°12' W 096°08'0 0.0
2014-Oct-16 00:32N 19°12' W 096°08'0 0.0
2014-Oct-15 23:32N 19°12' W 096°08'0 0.0
2014-Oct-15 22:32N 19°12' W 096°08'0 0.0
2014-Oct-15 21:31N 19°12' W 096°08'0 0.0
2014-Oct-15 20:31N 19°12' W 096°08'0 0.0
2014-Oct-15 19:31N 19°12' W 096°08'0 0.0
2014-Oct-15 18:31N 19°12' W 096°08'0 0.0
2014-Oct-15 17:31N 19°12' W 096°08'0 0.0
2014-Oct-15 16:31N 19°12' W 096°08'0 0.0
2014-Oct-15 15:31N 19°12' W 096°08'0 0.0
2014-Oct-15 14:31N 19°12' W 096°08'0 0.0
2014-Oct-15 13:31N 19°12' W 096°08'3 3.2
2014-Oct-15 12:34N 19°12' W 096°05'2 2.3
2014-Oct-15 11:32N 19°10' W 096°04'0 0.0
2014-Oct-15 10:33N 19°10' W 096°04'0 0.0
2014-Oct-15 09:32N 19°10' W 096°04'0 0.0
2014-Oct-15 08:32N 19°10' W 096°04'0 0.0
2014-Oct-15 07:32N 19°10' W 096°04'0 0.0
2014-Oct-15 06:32N 19°10' W 096°04'0 0.0
2014-Oct-15 05:32N 19°10' W 096°04'0 0.0
2014-Oct-15 04:31N 19°10' W 096°04'0 0.0
2014-Oct-15 03:31N 19°10' W 096°04'0 0.1
2014-Oct-15 02:31N 19°10' W 096°04'0 0.0
2014-Oct-15 01:31N 19°10' W 096°04'0 0.0
2014-Oct-15 00:31N 19°10' W 096°04'0 0.0
2014-Oct-14 23:32N 19°10' W 096°04'0 0.0
2014-Oct-14 22:32N 19°10' W 096°04'0 0.0
2014-Oct-14 21:32N 19°10' W 096°04'0 0.0
2014-Oct-14 20:31N 19°10' W 096°04'0 0.0
2014-Oct-14 19:31N 19°10' W 096°04'0 0.0
2014-Oct-14 18:33N 19°10' W 096°04'0 0.0
2014-Oct-14 17:30N 19°10' W 096°04'0 0.1
2014-Oct-14 16:34N 19°10' W 096°04'10 9.7
2014-Oct-14 15:33N 19°19' W 096°00'1414.2
2014-Oct-14 14:33N 19°32' W 096°06'1817.8
2014-Oct-14 13:32N 19°49' W 096°13'  
2014-Oct-11 03:33N 29°21' W 094°47'1211.6
2014-Oct-11 02:33N 29°31' W 094°53'1211.9
2014-Oct-11 01:33N 29°42' W 094°60'6 6.5
2014-Oct-11 00:33N 29°45' W 095°06'0 0.5
2014-Oct-10 23:33N 29°45' W 095°07'0 0.0
2014-Oct-10 22:33N 29°45' W 095°07'0 0.0
2014-Oct-10 21:33N 29°45' W 095°07'0 0.0
2014-Oct-10 20:33N 29°45' W 095°07'0 0.0
2014-Oct-10 19:30N 29°45' W 095°07'0 0.0
2014-Oct-10 18:33N 29°45' W 095°07'0 0.0
2014-Oct-10 17:30N 29°45' W 095°07'0 0.0
2014-Oct-10 16:30N 29°45' W 095°07'0 0.0
2014-Oct-10 15:30N 29°45' W 095°07'0 0.0
2014-Oct-10 14:30N 29°45' W 095°07'0 0.0
2014-Oct-10 13:33N 29°45' W 095°07'0 0.0
2014-Oct-10 12:33N 29°45' W 095°07'0 0.0
2014-Oct-10 11:33N 29°45' W 095°07'0 0.0
2014-Oct-10 10:27N 29°45' W 095°07'0 0.0
2014-Oct-10 09:33N 29°45' W 095°07'0 0.0
2014-Oct-10 08:31N 29°45' W 095°07'0 0.0
2014-Oct-10 07:31N 29°45' W 095°07'0 0.0
2014-Oct-10 06:25N 29°45' W 095°07'0 0.0
2014-Oct-10 05:31N 29°45' W 095°07'0 0.0
2014-Oct-10 04:28N 29°45' W 095°07'0 0.0
2014-Oct-10 03:31N 29°45' W 095°07'0 0.0
2014-Oct-10 02:31N 29°45' W 095°07'0 0.0
2014-Oct-10 01:32N 29°45' W 095°07'0 0.0
2014-Oct-10 00:32N 29°45' W 095°07'0 0.0
2014-Oct-09 23:29N 29°45' W 095°07'0 0.0
2014-Oct-09 22:32N 29°45' W 095°07'0 0.0
2014-Oct-09 21:32N 29°45' W 095°07'0 0.0
2014-Oct-09 20:32N 29°45' W 095°07'0 0.0
2014-Oct-09 19:32N 29°45' W 095°07'0 0.0
2014-Oct-09 18:32N 29°45' W 095°07'0 0.0
2014-Oct-09 17:32N 29°45' W 095°07'0 0.0
2014-Oct-09 16:33N 29°45' W 095°07'0 0.0
2014-Oct-09 15:33N 29°45' W 095°07'0 0.0
2014-Oct-09 14:33N 29°45' W 095°07'0 0.0
2014-Oct-09 13:33N 29°45' W 095°07'0 0.0
2014-Oct-09 12:30N 29°45' W 095°07'  
Track history (hours):
 
Tides and Currents Weather Stations Pressure Air Temp Water Temp Dewpoint Dewpoint Depression Visibility Wind Speed Wind Dir Waves Ship Positions

Caribbean Sea

Last reported at 2014-Oct-16 09:23 UTC. Time now 2014-Oct-23 05:23 UTC.
Position N 19°14' W 095°39'.

Length 183 m; draft 8.9 m.

Type: Ship (hazmat cat A). MMSI: 244523000.

Date/timePositionNaut miles runAvg speedWind from/ knotsBaromVisibWave heightAir tempDewpointWater temp
2014-Oct-16 09:23N 19°14' W 095°39'1417.4
2014-Oct-16 08:34N 19°12' W 095°54'1413.6
2014-Oct-16 07:34N 19°12' W 096°08'0 0.2
2014-Oct-16 06:32N 19°12' W 096°08'0 0.0
2014-Oct-16 05:33N 19°12' W 096°08'0 0.0
2014-Oct-16 04:33N 19°12' W 096°08'0 0.0
2014-Oct-16 03:32N 19°12' W 096°08'0 0.0
2014-Oct-16 02:32N 19°12' W 096°08'0 0.0
2014-Oct-16 01:32N 19°12' W 096°08'0 0.0
2014-Oct-16 00:32N 19°12' W 096°08'0 0.0
2014-Oct-15 23:32N 19°12' W 096°08'0 0.0
2014-Oct-15 22:32N 19°12' W 096°08'0 0.0
2014-Oct-15 21:31N 19°12' W 096°08'0 0.0
2014-Oct-15 20:31N 19°12' W 096°08'0 0.0
2014-Oct-15 19:31N 19°12' W 096°08'0 0.0
2014-Oct-15 18:31N 19°12' W 096°08'0 0.0
2014-Oct-15 17:31N 19°12' W 096°08'0 0.0
2014-Oct-15 16:31N 19°12' W 096°08'0 0.0
2014-Oct-15 15:31N 19°12' W 096°08'0 0.0
2014-Oct-15 14:31N 19°12' W 096°08'0 0.0
2014-Oct-15 13:31N 19°12' W 096°08'3 3.2
2014-Oct-15 12:34N 19°12' W 096°05'2 2.3
2014-Oct-15 11:32N 19°10' W 096°04'0 0.0
2014-Oct-15 10:33N 19°10' W 096°04'0 0.0
2014-Oct-15 09:32N 19°10' W 096°04'0 0.0
2014-Oct-15 08:32N 19°10' W 096°04'0 0.0
2014-Oct-15 07:32N 19°10' W 096°04'0 0.0
2014-Oct-15 06:32N 19°10' W 096°04'0 0.0
2014-Oct-15 05:32N 19°10' W 096°04'0 0.0
2014-Oct-15 04:31N 19°10' W 096°04'0 0.0
2014-Oct-15 03:31N 19°10' W 096°04'0 0.1
2014-Oct-15 02:31N 19°10' W 096°04'0 0.0
2014-Oct-15 01:31N 19°10' W 096°04'0 0.0
2014-Oct-15 00:31N 19°10' W 096°04'0 0.0
2014-Oct-14 23:32N 19°10' W 096°04'0 0.0
2014-Oct-14 22:32N 19°10' W 096°04'0 0.0
2014-Oct-14 21:32N 19°10' W 096°04'0 0.0
2014-Oct-14 20:31N 19°10' W 096°04'0 0.0
2014-Oct-14 19:31N 19°10' W 096°04'0 0.0
2014-Oct-14 18:33N 19°10' W 096°04'0 0.0
2014-Oct-14 17:30N 19°10' W 096°04'0 0.1
2014-Oct-14 16:34N 19°10' W 096°04'10 9.7
2014-Oct-14 15:33N 19°19' W 096°00'1414.2
2014-Oct-14 14:33N 19°32' W 096°06'1817.8
2014-Oct-14 13:32N 19°49' W 096°13'  
2014-Oct-11 03:33N 29°21' W 094°47'1211.6
2014-Oct-11 02:33N 29°31' W 094°53'1211.9
2014-Oct-11 01:33N 29°42' W 094°60'6 6.5
2014-Oct-11 00:33N 29°45' W 095°06'0 0.5
2014-Oct-10 23:33N 29°45' W 095°07'0 0.0
2014-Oct-10 22:33N 29°45' W 095°07'0 0.0
2014-Oct-10 21:33N 29°45' W 095°07'0 0.0
2014-Oct-10 20:33N 29°45' W 095°07'0 0.0
2014-Oct-10 19:30N 29°45' W 095°07'0 0.0
2014-Oct-10 18:33N 29°45' W 095°07'0 0.0
2014-Oct-10 17:30N 29°45' W 095°07'0 0.0
2014-Oct-10 16:30N 29°45' W 095°07'0 0.0
2014-Oct-10 15:30N 29°45' W 095°07'0 0.0
2014-Oct-10 14:30N 29°45' W 095°07'0 0.0
2014-Oct-10 13:33N 29°45' W 095°07'0 0.0
2014-Oct-10 12:33N 29°45' W 095°07'0 0.0
2014-Oct-10 11:33N 29°45' W 095°07'0 0.0
2014-Oct-10 10:27N 29°45' W 095°07'0 0.0
2014-Oct-10 09:33N 29°45' W 095°07'0 0.0
2014-Oct-10 08:31N 29°45' W 095°07'0 0.0
2014-Oct-10 07:31N 29°45' W 095°07'0 0.0
2014-Oct-10 06:25N 29°45' W 095°07'0 0.0
2014-Oct-10 05:31N 29°45' W 095°07'0 0.0
2014-Oct-10 04:28N 29°45' W 095°07'0 0.0
2014-Oct-10 03:31N 29°45' W 095°07'0 0.0
2014-Oct-10 02:31N 29°45' W 095°07'0 0.0
2014-Oct-10 01:32N 29°45' W 095°07'0 0.0
2014-Oct-10 00:32N 29°45' W 095°07'0 0.0
2014-Oct-09 23:29N 29°45' W 095°07'0 0.0
2014-Oct-09 22:32N 29°45' W 095°07'0 0.0
2014-Oct-09 21:32N 29°45' W 095°07'0 0.0
2014-Oct-09 20:32N 29°45' W 095°07'0 0.0
2014-Oct-09 19:32N 29°45' W 095°07'0 0.0
2014-Oct-09 18:32N 29°45' W 095°07'0 0.0
2014-Oct-09 17:32N 29°45' W 095°07'0 0.0
2014-Oct-09 16:33N 29°45' W 095°07'0 0.0
2014-Oct-09 15:33N 29°45' W 095°07'0 0.0
2014-Oct-09 14:33N 29°45' W 095°07'0 0.0
2014-Oct-09 13:33N 29°45' W 095°07'0 0.0
2014-Oct-09 12:30N 29°45' W 095°07'  

Dump ship's entire track history